createdAt,value
2018-02-09T05:00:04.794Z,52.72
2018-02-09T05:02:31.173Z,58.95
2018-02-09T05:04:57.590Z,60.05
2018-02-09T05:07:23.978Z,57.67
2018-02-09T05:09:50.398Z,56.15
2018-02-09T05:12:17.519Z,58.80
2018-02-09T05:14:43.982Z,56.90
2018-02-09T05:17:11.118Z,55.15
2018-02-09T05:19:37.517Z,55.20
2018-02-09T05:22:03.910Z,56.25
2018-02-09T05:24:31.057Z,56.85
2018-02-09T05:26:58.201Z,55.83
2018-02-09T05:29:25.347Z,54.35
2018-02-09T05:31:52.478Z,56.78
2018-02-09T05:34:18.889Z,56.65
2018-02-09T05:36:45.261Z,53.97
2018-02-09T05:39:11.667Z,54.78
2018-02-09T05:41:38.074Z,57.75
2018-02-09T05:44:04.453Z,56.80
2018-02-09T05:46:30.848Z,56.50
2018-02-09T05:48:57.228Z,55.65
2018-02-09T05:51:23.653Z,56.83
2018-02-09T05:53:50.033Z,56.30
2018-02-09T05:56:16.426Z,55.55
2018-02-09T05:58:42.823Z,57.85
2018-02-09T06:01:09.253Z,58.15
2018-02-09T06:03:35.658Z,58.00
2018-02-09T06:06:09.010Z,56.70
2018-02-09T06:08:35.450Z,55.45
2018-02-09T06:11:01.807Z,56.63
2018-02-09T06:13:28.942Z,56.30
2018-02-09T06:15:55.317Z,56.58
2018-02-09T06:18:21.732Z,55.10
2018-02-09T06:20:48.942Z,59.35
2018-02-09T06:23:15.302Z,55.40
2018-02-09T06:25:41.717Z,57.92
2018-02-09T06:28:08.088Z,58.55
2018-02-09T06:30:35.237Z,58.58
2018-02-09T06:33:02.353Z,55.58
2018-02-09T06:35:28.799Z,56.35
2018-02-09T06:37:55.182Z,56.20
2018-02-09T06:40:21.581Z,56.63
2018-02-09T06:42:48.696Z,58.67
2018-02-09T06:45:15.186Z,57.67
2018-02-09T06:47:48.419Z,57.47
2018-02-09T06:50:14.819Z,56.90
2018-02-09T06:52:41.190Z,57.83
2018-02-09T06:55:07.597Z,56.08
2018-02-09T06:57:34.038Z,56.60
2018-02-09T07:00:00.458Z,59.03
2018-02-09T07:02:26.821Z,58.55
2018-02-09T07:04:53.209Z,59.67
2018-02-09T07:07:20.314Z,59.53
2018-02-09T07:09:46.753Z,58.53
2018-02-09T07:12:13.145Z,57.93
2018-02-09T07:14:39.552Z,57.35
2018-02-09T07:17:05.957Z,56.28
2018-02-09T07:19:32.481Z,57.22
2018-02-09T07:21:58.861Z,57.50
2018-02-09T07:24:26.060Z,57.50
2018-02-09T07:26:52.470Z,57.62
2018-02-09T07:29:18.862Z,57.35
2018-02-09T07:31:45.293Z,58.60
2018-02-09T07:34:11.719Z,56.37
2018-02-09T07:36:38.125Z,60.35
2018-02-09T07:39:04.570Z,58.03
2018-02-09T07:41:31.006Z,65.22
2018-02-09T07:43:57.441Z,86.70
2018-02-09T07:46:23.966Z,56.83
2018-02-09T07:48:50.346Z,57.35
2018-02-09T07:51:16.757Z,58.40
2018-02-09T07:53:43.133Z,57.20
2018-02-09T07:56:10.278Z,59.92
2018-02-09T07:58:37.409Z,60.70
2018-02-09T08:01:03.803Z,57.15
2018-02-09T08:03:30.198Z,57.17
2018-02-09T08:05:57.329Z,62.50
2018-02-09T08:08:23.721Z,57.58
2018-02-09T08:10:50.090Z,58.60
2018-02-09T08:13:16.494Z,58.15
2018-02-09T08:15:42.903Z,57.60
2018-02-09T08:18:09.289Z,57.83
2018-02-09T08:20:35.689Z,56.25
2018-02-09T08:23:02.069Z,59.63
2018-02-09T08:25:28.466Z,57.05
2018-02-09T08:27:54.840Z,59.15
2018-02-09T08:30:21.274Z,57.15
2018-02-09T08:32:48.407Z,57.42
2018-02-09T08:35:14.836Z,57.50
2018-02-09T08:37:41.197Z,59.03
2018-02-09T08:40:08.329Z,56.75
2018-02-09T08:42:34.693Z,55.70
2018-02-09T08:45:01.857Z,59.05
2018-02-09T08:47:28.240Z,57.92
2018-02-09T08:49:54.669Z,57.90
2018-02-09T08:52:21.058Z,57.87
2018-02-09T08:54:47.461Z,66.32
2018-02-09T08:57:13.861Z,64.50
2018-02-09T08:59:40.250Z,55.40
2018-02-09T09:02:07.416Z,61.33
2018-02-09T09:04:33.841Z,58.15
2018-02-09T09:07:00.241Z,58.15
2018-02-09T09:09:26.714Z,55.35
2018-02-09T09:11:53.133Z,53.05
2018-02-09T09:14:20.293Z,52.92
2018-02-09T09:16:46.682Z,53.90
2018-02-09T09:19:13.097Z,54.70
2018-02-09T09:21:39.489Z,55.35
2018-02-09T09:24:06.650Z,54.63
2018-02-09T09:26:33.032Z,57.25
2018-02-09T09:28:59.457Z,57.20
2018-02-09T09:31:25.844Z,57.42
2018-02-09T09:33:53.042Z,56.88
2018-02-09T09:36:19.433Z,55.45
2018-02-09T09:38:46.601Z,55.53
2018-02-09T09:41:13.022Z,49.30
2018-02-09T09:43:39.410Z,45.28
2018-02-09T09:46:05.843Z,48.70
2018-02-09T09:48:32.234Z,38.63
2018-02-09T09:50:58.632Z,41.60
2018-02-09T09:53:25.015Z,39.42
2018-02-09T09:55:51.403Z,33.67
2018-02-09T09:58:18.542Z,32.65
2018-02-09T10:00:44.934Z,35.90
2018-02-09T10:03:11.390Z,34.60
2018-02-09T10:05:37.792Z,34.25
2018-02-09T10:08:04.203Z,35.30
2018-02-09T10:10:31.324Z,36.75
2018-02-09T10:12:57.730Z,38.15
2018-02-09T10:15:24.137Z,38.28
2018-02-09T10:17:57.705Z,34.60
2018-02-09T10:20:24.122Z,34.55
2018-02-09T10:22:50.508Z,30.05
2018-02-09T10:25:16.949Z,29.08
2018-02-09T10:27:43.349Z,31.00
2018-02-09T10:30:10.500Z,32.20
2018-02-09T10:32:37.621Z,29.05
2018-02-09T10:35:04.025Z,31.17
2018-02-09T10:37:30.424Z,31.20
2018-02-09T10:39:57.555Z,29.15
2018-02-09T10:42:23.965Z,29.58
2018-02-09T10:44:50.338Z,31.37
2018-02-09T10:47:17.494Z,31.98
2018-02-09T10:49:43.889Z,31.55
2018-02-09T10:52:10.277Z,30.42
2018-02-09T10:54:37.380Z,30.20
2018-02-09T10:57:03.769Z,31.35
2018-02-09T10:59:30.172Z,29.00
2018-02-09T11:01:57.290Z,32.58
2018-02-09T11:04:23.694Z,30.37
2018-02-09T11:06:50.069Z,26.30
2018-02-09T11:09:22.434Z,30.52
2018-02-09T11:11:48.862Z,28.55
2018-02-09T11:14:15.261Z,28.40
2018-02-09T11:16:41.628Z,29.30
2018-02-09T11:19:08.024Z,30.48
2018-02-09T11:21:34.417Z,27.10
2018-02-09T11:24:00.825Z,28.17
2018-02-09T11:26:27.206Z,28.85
2018-02-09T11:28:54.339Z,27.92
2018-02-09T11:31:21.545Z,29.50
2018-02-09T11:33:47.912Z,29.75
2018-02-09T11:36:14.316Z,28.65
2018-02-09T11:38:40.690Z,28.70
2018-02-09T11:41:07.093Z,31.50
2018-02-09T11:43:33.494Z,33.47
2018-02-09T11:45:59.885Z,29.37
2018-02-09T11:48:26.280Z,31.20
2018-02-09T11:50:52.651Z,28.05
2018-02-09T11:53:19.053Z,29.77
2018-02-09T11:55:45.420Z,31.37
2018-02-09T11:58:11.816Z,28.45
2018-02-09T12:00:38.249Z,27.75
2018-02-09T12:03:04.616Z,27.50
2018-02-09T12:05:31.040Z,31.95
2018-02-09T12:07:57.498Z,26.33
2018-02-09T12:10:23.899Z,29.42
2018-02-09T12:12:50.276Z,27.75
2018-02-09T12:15:17.450Z,28.12
2018-02-09T12:17:43.849Z,26.58
2018-02-09T12:20:10.966Z,29.50
2018-02-09T12:22:37.370Z,29.27
2018-02-09T12:25:03.833Z,30.15
2018-02-09T12:27:30.253Z,28.90
2018-02-09T12:29:56.616Z,26.40
2018-02-09T12:32:23.010Z,29.48
2018-02-09T12:34:56.212Z,28.42
2018-02-09T12:37:22.606Z,29.15
2018-02-09T12:39:48.985Z,27.35
2018-02-09T12:42:15.381Z,28.10
2018-02-09T12:44:42.538Z,29.73
2018-02-09T12:47:09.705Z,27.52
2018-02-09T12:49:36.117Z,28.48
2018-02-09T12:52:03.243Z,27.87
2018-02-09T12:54:29.648Z,29.73
2018-02-09T12:56:56.030Z,29.73
2018-02-09T12:59:22.429Z,30.20
2018-02-09T13:01:48.834Z,30.52
2018-02-09T13:04:15.234Z,31.30
2018-02-09T13:06:42.362Z,29.02
2018-02-09T13:09:08.761Z,29.73
2018-02-09T13:11:35.144Z,31.05
2018-02-09T13:14:01.587Z,30.90
2018-02-09T13:16:27.958Z,33.33
2018-02-09T13:18:54.403Z,33.97
2018-02-09T13:21:20.775Z,34.22
2018-02-09T13:23:59.558Z,30.45
2018-02-09T13:26:25.942Z,34.67
2018-02-09T13:28:59.321Z,32.28
2018-02-09T17:59:53.646Z,41.80
2018-02-09T18:02:20.033Z,44.00
2018-02-09T18:04:47.184Z,49.63
2018-02-09T18:07:15.781Z,43.87
2018-02-09T18:09:42.931Z,44.63
2018-02-09T18:12:10.061Z,43.63
2018-02-09T18:14:36.488Z,43.28
2018-02-09T18:17:02.974Z,46.35
2018-02-09T18:19:29.408Z,47.85
2018-02-09T18:21:55.858Z,45.17
2018-02-09T18:24:22.353Z,45.70
2018-02-09T18:26:49.517Z,45.42
2018-02-09T18:29:15.927Z,44.47
2018-02-09T18:31:43.073Z,44.25
2018-02-09T18:34:09.533Z,45.97
2018-02-09T18:36:36.644Z,46.97
2018-02-09T18:39:03.430Z,44.35
2018-02-09T18:41:29.823Z,46.05
2018-02-09T18:43:56.239Z,45.63
2018-02-09T18:46:22.644Z,49.67
2018-02-09T18:48:49.069Z,47.83
2018-02-09T18:51:17.641Z,48.28
2018-02-09T18:53:47.045Z,47.30
2018-02-09T18:56:16.184Z,45.72
2018-02-09T18:58:44.652Z,46.08
2018-02-09T19:01:12.692Z,48.03
2018-02-09T19:03:41.136Z,49.05
2018-02-09T19:06:09.549Z,46.17
2018-02-09T19:08:38.701Z,46.55
2018-02-09T19:11:07.944Z,46.63
2018-02-09T19:13:37.251Z,48.05
2018-02-09T19:16:06.352Z,48.83
2018-02-09T19:18:34.300Z,45.72
2018-02-09T19:21:02.462Z,46.13
2018-02-09T19:23:30.014Z,42.50
2018-02-09T19:25:58.526Z,45.50
2018-02-09T19:28:26.994Z,45.70
2018-02-09T19:30:55.356Z,42.53
2018-02-09T19:33:23.985Z,43.07
2018-02-09T19:35:53.090Z,41.28
2018-02-09T19:38:22.170Z,42.62
2018-02-09T19:40:50.665Z,43.45
2018-02-09T19:43:20.056Z,42.72
2018-02-09T19:45:48.809Z,43.83
2018-02-09T19:48:17.425Z,45.38
2018-02-09T19:50:45.666Z,44.42
2018-02-09T19:53:13.724Z,43.73
2018-02-09T19:55:42.647Z,45.13
2018-02-09T19:58:11.386Z,43.25
2018-02-09T20:00:40.732Z,42.38
2018-02-09T20:03:07.163Z,42.58
2018-02-09T20:05:33.553Z,43.87
2018-02-09T20:08:00.739Z,44.10
2018-02-09T20:10:27.154Z,42.67
2018-02-09T20:12:53.557Z,44.83
2018-02-09T20:15:19.977Z,45.58
2018-02-09T20:17:46.368Z,44.05
2018-02-09T20:20:12.778Z,44.27
2018-02-09T20:22:39.933Z,44.25
2018-02-09T20:25:07.118Z,45.63
2018-02-09T20:27:33.489Z,46.83
2018-02-09T20:29:59.886Z,43.75
2018-02-09T20:32:26.294Z,45.63
2018-02-09T20:34:52.673Z,45.15
2018-02-09T20:37:19.090Z,43.58
2018-02-09T20:39:45.490Z,43.63
2018-02-09T20:42:12.656Z,41.88
2018-02-09T20:44:39.149Z,41.90
2018-02-09T20:47:05.573Z,42.43
2018-02-09T20:49:31.985Z,44.63
2018-02-09T20:51:58.407Z,43.35
2018-02-09T20:54:25.243Z,42.25
2018-02-09T20:56:51.854Z,42.67
2018-02-09T20:59:19.090Z,42.70
2018-02-09T21:01:46.321Z,42.20
2018-02-09T21:04:12.807Z,43.10
2018-02-09T21:06:39.950Z,43.67
2018-02-09T21:09:07.173Z,41.75
2018-02-09T21:11:33.594Z,43.15
2018-02-09T21:14:00.062Z,42.70
2018-02-09T21:16:27.295Z,43.50
2018-02-09T21:18:53.725Z,45.57
2018-02-09T21:21:20.190Z,45.17
2018-02-09T21:23:47.306Z,45.95
2018-02-09T21:26:13.774Z,46.83
2018-02-09T21:28:40.914Z,45.20
2018-02-09T21:31:07.429Z,45.30
2018-02-09T21:33:33.811Z,46.08
2018-02-09T21:36:00.983Z,45.70
2018-02-09T21:38:27.451Z,47.67
2018-02-09T21:40:53.883Z,46.88
2018-02-09T21:43:20.327Z,46.53
2018-02-09T21:45:47.516Z,47.62
2018-02-09T21:48:14.697Z,49.47
2018-02-09T21:50:41.154Z,47.70
2018-02-09T21:53:07.561Z,44.45
2018-02-09T21:55:34.042Z,47.97
2018-02-09T21:58:00.442Z,45.92
2018-02-09T22:00:26.931Z,45.85
2018-02-09T22:02:54.052Z,43.85
2018-02-09T22:05:20.469Z,46.45
2018-02-09T22:07:46.858Z,47.50
2018-02-09T22:10:14.025Z,46.88
2018-02-09T22:12:40.425Z,47.70
2018-02-09T22:15:06.899Z,49.25
2018-02-09T22:17:33.308Z,46.17
2018-02-09T22:20:00.464Z,45.78
2018-02-09T22:22:27.617Z,46.40
2018-02-09T22:24:54.754Z,49.90
2018-02-09T22:27:21.147Z,48.63
2018-02-09T22:29:47.565Z,45.63
2018-02-09T22:32:13.952Z,46.40
2018-02-09T22:34:40.368Z,47.15
2018-02-09T22:37:06.771Z,45.75
2018-02-09T22:39:33.190Z,47.60
2018-02-09T22:41:59.634Z,47.50
2018-02-09T22:44:26.086Z,45.12
2018-02-09T22:46:52.473Z,46.60
2018-02-09T22:49:19.660Z,47.30
2018-02-09T22:51:46.063Z,48.67
2018-02-09T22:54:13.219Z,47.10
2018-02-09T22:56:40.363Z,45.83
2018-02-09T22:59:07.556Z,45.55
2018-02-09T23:01:34.001Z,49.60
2018-02-09T23:04:00.596Z,47.03
2018-02-09T23:06:27.822Z,48.40
2018-02-09T23:08:54.341Z,48.60
2018-02-09T23:11:20.769Z,47.60
2018-02-09T23:13:47.192Z,47.05
2018-02-09T23:16:13.590Z,47.17
2018-02-09T23:18:40.010Z,48.95
2018-02-09T23:21:07.134Z,47.40
2018-02-09T23:23:33.545Z,49.38
2018-02-09T23:25:59.929Z,46.97
2018-02-09T23:28:27.085Z,46.53
2018-02-09T23:30:54.217Z,46.70
2018-02-09T23:33:20.617Z,49.00
2018-02-09T23:35:47.094Z,48.92
2018-02-09T23:38:14.314Z,46.45
2018-02-09T23:40:40.765Z,45.70
2018-02-09T23:43:07.214Z,48.50
2018-02-09T23:45:33.672Z,47.65
2018-02-09T23:48:00.821Z,47.67
2018-02-09T23:50:27.969Z,46.70
2018-02-09T23:52:55.091Z,46.55
2018-02-09T23:55:21.500Z,47.58
2018-02-09T23:57:47.878Z,48.92
